ADDS METAR Data INFO
IDs: Format: Raw Decoded Include TAF

Data at: 1858 UTC 22 Sep 2017

METAR for:KAUS (Austin/Bergstrom Int, TX, US)
Text:KAUS 221853Z 10010KT 10SM SCT047 BKN060 BKN200 32/23 A2993 RMK AO2 RAB06E23 SLP125 P0000 T03170228
Temperature: 31.7°C ( 89°F)
Dewpoint: 22.8°C ( 73°F) [RH = 59%]
Pressure (altimeter):29.93 inches Hg (1013.6 mb) [Sea level pressure: 1012.5 mb]
Winds:from the E (100 degrees) at 12 MPH (10 knots; 5.1 m/s)
Visibility:10 or more sm (16+ km)
Ceiling:6000 feet AGL
Clouds: scattered clouds at 4700 feet AGL, broken clouds at 6000 feet AGL, broken clouds at 20000 feet AGL